Time;durP1;ratioP1;P1;durP2;ratioP2;P2;SDS_P1;SDS_P2;PMS_P1;PMS_P2;Temp;Humidity;BMP_temperature;BMP_pressure;BME280_temperature;BME280_humidity;BME280_pressure;Samples;Min_cycle;Max_cycle;Signal;HPM_P1;HPM_P2
2024/01/15 00:01:36;;;;;;;0.00;0.00;;;4.90;73.80;;;;;;5075336;28;20212;-35
2024/01/15 00:04:04;;;;;;;0.00;0.00;;;4.90;73.70;;;;;;5065061;28;20195;-35
2024/01/15 00:06:33;;;;;;;0.00;0.00;;;4.90;73.70;;;;;;5076586;28;20235;-35
2024/01/15 00:09:00;;;;;;;0.00;0.00;;;4.90;73.70;;;;;;5070192;28;20493;-34
2024/01/15 00:11:30;;;;;;;0.00;0.00;;;4.90;73.70;;;;;;5048743;28;20495;-35
2024/01/15 00:13:57;;;;;;;0.00;0.00;;;4.90;73.70;;;;;;5068711;28;20571;-34
2024/01/15 00:16:24;;;;;;;0.00;0.00;;;4.90;73.60;;;;;;5073174;28;20615;-34
2024/01/15 00:18:51;;;;;;;0.00;0.00;;;4.90;73.70;;;;;;5065150;28;20239;-34
2024/01/15 00:21:19;;;;;;;0.00;0.00;;;4.90;73.60;;;;;;5081275;28;20599;-34
2024/01/15 00:23:48;;;;;;;0.00;0.00;;;4.90;73.60;;;;;;5081544;28;20203;-35
2024/01/15 00:26:20;;;;;;;0.00;0.00;;;4.90;73.50;;;;;;5079108;28;20595;-34
2024/01/15 00:28:47;;;;;;;0.00;0.00;;;4.90;73.50;;;;;;5063406;28;20198;-34
2024/01/15 00:31:17;;;;;;;0.00;0.00;;;4.90;73.50;;;;;;5065368;28;20677;-34
2024/01/15 00:33:45;;;;;;;0.00;0.00;;;4.90;73.60;;;;;;5078413;28;20202;-34
2024/01/15 00:36:16;;;;;;;0.00;0.00;;;4.90;73.60;;;;;;5071563;28;20747;-34
2024/01/15 00:38:44;;;;;;;0.00;0.00;;;4.90;74.40;;;;;;5064629;28;20195;-34
2024/01/15 00:41:14;;;;;;;0.00;0.00;;;4.90;73.60;;;;;;5065606;28;20216;-35
2024/01/15 00:43:44;;;;;;;0.00;0.00;;;4.90;73.70;;;;;;5083515;28;20210;-35
2024/01/15 00:46:11;;;;;;;0.00;0.00;;;4.90;73.70;;;;;;5075780;28;20199;-34
2024/01/15 00:48:38;;;;;;;0.00;0.00;;;4.90;73.80;;;;;;5064385;28;20295;-35
2024/01/15 00:51:06;;;;;;;0.00;0.00;;;4.90;73.80;;;;;;5063500;28;20233;-34
2024/01/15 00:53:33;;;;;;;0.00;0.00;;;4.90;73.90;;;;;;5075860;28;20235;-35
2024/01/15 00:56:01;;;;;;;0.00;0.00;;;5.00;73.90;;;;;;5077475;28;20202;-35
2024/01/15 00:58:29;;;;;;;0.00;0.00;;;5.00;74.00;;;;;;5072308;28;20203;-35
2024/01/15 01:00:58;;;;;;;0.00;0.00;;;5.00;74.00;;;;;;5072488;28;20284;-37
2024/01/15 01:03:27;;;;;;;0.00;0.00;;;5.10;74.00;;;;;;5085281;28;20190;-36
2024/01/15 01:05:57;;;;;;;0.00;0.00;;;5.10;74.70;;;;;;5086824;28;20587;-35
2024/01/15 01:08:27;;;;;;;0.00;0.00;;;5.10;74.00;;;;;;5076509;28;20204;-37
2024/01/15 01:11:01;;;;;;;0.00;0.00;;;5.10;73.90;;;;;;5072058;28;20700;-35
2024/01/15 01:13:31;;;;;;;0.00;0.00;;;5.10;74.00;;;;;;5086761;28;20283;-34
2024/01/15 01:15:58;;;;;;;0.00;0.00;;;5.10;74.00;;;;;;5078084;28;20227;-34
2024/01/15 01:18:28;;;;;;;0.00;0.00;;;5.10;74.00;;;;;;5077700;28;20548;-35
2024/01/15 01:20:56;;;;;;;0.00;0.00;;;5.20;74.20;;;;;;5065957;28;21017;-35
2024/01/15 01:23:23;;;;;;;0.00;0.00;;;5.20;74.20;;;;;;5066394;28;20230;-35
2024/01/15 01:25:50;;;;;;;0.00;0.00;;;5.20;74.10;;;;;;5063866;28;20248;-35
2024/01/15 01:28:18;;;;;;;0.00;0.00;;;5.30;74.10;;;;;;5066361;28;20696;-35
2024/01/15 01:30:45;;;;;;;0.00;0.00;;;5.30;74.10;;;;;;5067050;28;20615;-35
2024/01/15 01:33:12;;;;;;;0.00;0.00;;;5.30;74.00;;;;;;5075842;28;20241;-37
2024/01/15 01:35:43;;;;;;;0.00;0.00;;;5.30;73.90;;;;;;5087116;28;20191;-35
2024/01/15 01:38:10;;;;;;;0.00;0.00;;;5.30;74.00;;;;;;5074764;28;20211;-35
2024/01/15 01:40:40;;;;;;;0.00;0.00;;;5.30;74.00;;;;;;5086684;28;20551;-35
2024/01/15 01:43:10;;;;;;;0.00;0.00;;;5.30;74.00;;;;;;5071958;28;20235;-34
2024/01/15 01:45:38;;;;;;;0.00;0.00;;;5.30;74.00;;;;;;5082036;28;21086;-35
2024/01/15 01:48:07;;;;;;;0.00;0.00;;;5.30;74.00;;;;;;5072835;28;20696;-35
2024/01/15 01:50:36;;;;;;;0.00;0.00;;;5.30;74.00;;;;;;5069775;28;20203;-35
2024/01/15 01:53:06;;;;;;;0.00;0.00;;;5.30;74.00;;;;;;5087525;28;20195;-36
2024/01/15 01:55:34;;;;;;;0.00;0.00;;;5.30;74.00;;;;;;5073114;28;20299;-35
2024/01/15 01:58:03;;;;;;;0.00;0.00;;;5.30;74.10;;;;;;5068595;28;20203;-35
2024/01/15 02:00:34;;;;;;;0.00;0.00;;;5.30;74.20;;;;;;5081721;28;20227;-34
2024/01/15 02:03:03;;;;;;;0.00;0.00;;;5.30;74.10;;;;;;5075408;28;20681;-36
2024/01/15 02:05:33;;;;;;;0.00;0.00;;;5.30;74.20;;;;;;5064847;28;20210;-33
2024/01/15 02:08:03;;;;;;;0.00;0.00;;;5.30;74.20;;;;;;5070440;28;20593;-35
2024/01/15 02:10:30;;;;;;;0.00;0.00;;;5.30;74.10;;;;;;5071864;28;20203;-35
2024/01/15 02:12:58;;;;;;;0.00;0.00;;;5.30;74.00;;;;;;5065588;28;20309;-35
2024/01/15 02:15:25;;;;;;;0.00;0.00;;;5.30;74.10;;;;;;5068104;28;20759;-34
2024/01/15 02:18:07;;;;;;;0.00;0.00;;;5.30;74.00;;;;;;5072054;28;20206;-36
2024/01/15 02:20:35;;;;;;;0.00;0.00;;;5.30;74.10;;;;;;5067410;28;20661;-35
2024/01/15 02:23:15;;;;;;;0.00;0.00;;;5.30;74.10;;;;;;5070846;28;20311;-35
2024/01/15 02:25:45;;;;;;;0.00;0.00;;;5.20;74.10;;;;;;5069405;28;20199;-35
2024/01/15 02:28:17;;;;;;;0.00;0.00;;;5.20;74.00;;;;;;5068637;28;20227;-35
2024/01/15 02:30:46;;;;;;;0.00;0.00;;;5.20;74.10;;;;;;5055294;28;20736;-35
2024/01/15 02:33:14;;;;;;;0.00;0.00;;;5.20;74.00;;;;;;5079722;28;20642;-35
2024/01/15 02:35:41;;;;;;;0.00;0.00;;;5.20;74.00;;;;;;5049502;28;20625;-35
2024/01/15 02:38:09;;;;;;;0.00;0.00;;;5.20;74.00;;;;;;5059600;28;20202;-34
2024/01/15 02:40:38;;;;;;;0.00;0.00;;;5.20;74.10;;;;;;5080588;28;20195;-35
2024/01/15 02:43:06;;;;;;;0.00;0.00;;;5.20;74.10;;;;;;5080283;28;20214;-35
2024/01/15 02:45:35;;;;;;;0.00;0.00;;;5.20;74.10;;;;;;5051816;28;20191;-34
2024/01/15 02:48:02;;;;;;;0.00;0.00;;;5.20;74.00;;;;;;5083639;28;20657;-36
2024/01/15 02:50:30;;;;;;;0.00;0.00;;;5.20;74.10;;;;;;5077685;28;20669;-35
2024/01/15 02:52:57;;;;;;;0.00;0.00;;;5.20;74.10;;;;;;5068070;28;20199;-35
2024/01/15 02:55:29;;;;;;;0.00;0.00;;;5.20;74.10;;;;;;5084825;28;20288;-35
2024/01/15 02:57:59;;;;;;;0.00;0.00;;;5.20;74.10;;;;;;5066491;28;20200;-34
2024/01/15 03:00:28;;;;;;;0.00;0.00;;;5.20;74.10;;;;;;5082045;28;20199;-35
2024/01/15 03:02:56;;;;;;;0.00;0.00;;;5.20;74.20;;;;;;5079998;28;20215;-35
2024/01/15 03:05:26;;;;;;;0.00;0.00;;;5.20;74.20;;;;;;5083002;28;20556;-34
2024/01/15 03:07:56;;;;;;;0.00;0.00;;;5.20;74.30;;;;;;5082605;28;20191;-35
2024/01/15 03:10:25;;;;;;;0.00;0.00;;;5.20;74.20;;;;;;5083423;28;20206;-35
2024/01/15 03:12:52;;;;;;;0.00;0.00;;;5.30;74.30;;;;;;5084659;28;20214;-34
2024/01/15 03:15:22;;;;;;;0.00;0.00;;;5.30;74.40;;;;;;5083071;28;20242;-35
2024/01/15 03:17:49;;;;;;;0.00;0.00;;;5.30;74.40;;;;;;5072122;28;20205;-34
2024/01/15 03:20:16;;;;;;;0.00;0.00;;;5.30;74.30;;;;;;5075221;28;20199;-35
2024/01/15 03:22:43;;;;;;;0.00;0.00;;;5.30;74.30;;;;;;5073444;28;20218;-35
2024/01/15 03:25:11;;;;;;;0.00;0.00;;;5.30;75.00;;;;;;5070882;28;20307;-35
2024/01/15 03:27:42;;;;;;;0.00;0.00;;;5.30;74.20;;;;;;5075448;28;20199;-35
2024/01/15 03:30:13;;;;;;;0.00;0.00;;;5.30;74.20;;;;;;5085263;28;20257;-35
2024/01/15 03:32:43;;;;;;;0.00;0.00;;;5.30;74.10;;;;;;5064660;28;20219;-36
2024/01/15 03:35:10;;;;;;;0.00;0.00;;;5.30;74.20;;;;;;5068032;28;20586;-35
2024/01/15 03:37:40;;;;;;;0.00;0.00;;;5.30;74.10;;;;;;5065298;28;20206;-35
2024/01/15 03:40:10;;;;;;;0.00;0.00;;;5.30;74.20;;;;;;5082803;28;20198;-35
2024/01/15 03:42:37;;;;;;;0.00;0.00;;;5.30;74.40;;;;;;5079344;28;20214;-36
2024/01/15 03:45:09;;;;;;;0.00;0.00;;;5.30;74.30;;;;;;5079814;28;20627;-36
2024/01/15 03:47:41;;;;;;;0.00;0.00;;;5.30;74.30;;;;;;5077803;28;20214;-35
2024/01/15 03:50:09;;;;;;;0.00;0.00;;;5.30;74.30;;;;;;5081290;28;20291;-34
2024/01/15 03:52:36;;;;;;;0.00;0.00;;;5.30;74.30;;;;;;5083552;28;20644;-35
2024/01/15 03:55:08;;;;;;;0.00;0.00;;;5.30;74.30;;;;;;5085920;28;20210;-35
2024/01/15 03:57:38;;;;;;;0.00;0.00;;;5.30;74.30;;;;;;5084245;28;20215;-34
2024/01/15 04:00:07;;;;;;;0.00;0.00;;;5.30;74.30;;;;;;5072575;28;20206;-34
2024/01/15 04:02:36;;;;;;;0.00;0.00;;;5.30;74.30;;;;;;5074062;28;20251;-35
2024/01/15 04:05:07;;;;;;;0.00;0.00;;;5.30;74.30;;;;;;5071228;28;20381;-35
2024/01/15 04:07:34;;;;;;;0.00;0.00;;;5.30;74.30;;;;;;5074934;28;20727;-35
2024/01/15 04:10:04;;;;;;;0.00;0.00;;;5.30;74.40;;;;;;5078790;28;20214;-34
2024/01/15 04:12:32;;;;;;;0.00;0.00;;;5.30;74.40;;;;;;5056749;28;20214;-35
2024/01/15 04:15:01;;;;;;;0.00;0.00;;;5.30;74.30;;;;;;5070074;28;20596;-34
2024/01/15 04:17:31;;;;;;;0.00;0.00;;;5.30;74.20;;;;;;5077035;28;20206;-35
2024/01/15 04:19:59;;;;;;;0.00;0.00;;;5.30;74.30;;;;;;5069054;28;20241;-34
2024/01/15 04:22:32;;;;;;;0.00;0.00;;;5.30;74.30;;;;;;5074778;28;20314;-35
2024/01/15 04:25:05;;;;;;;0.00;0.00;;;5.20;74.20;;;;;;5063430;28;20199;-35
2024/01/15 04:27:34;;;;;;;0.00;0.00;;;5.20;74.20;;;;;;5078339;28;20207;-35
2024/01/15 04:30:04;;;;;;;0.00;0.00;;;5.20;74.20;;;;;;5068198;28;20705;-34
2024/01/15 04:32:32;;;;;;;0.00;0.00;;;5.20;74.20;;;;;;5075612;28;20270;-35
2024/01/15 04:35:04;;;;;;;0.00;0.00;;;5.20;74.20;;;;;;5063697;28;20294;-35
2024/01/15 04:37:31;;;;;;;0.00;0.00;;;5.20;74.20;;;;;;5065068;28;20315;-34
2024/01/15 04:40:03;;;;;;;0.00;0.00;;;5.20;74.30;;;;;;5080300;28;20285;-35
2024/01/15 04:42:33;;;;;;;0.00;0.00;;;5.20;74.20;;;;;;5069900;28;20227;-34
2024/01/15 04:45:01;;;;;;;0.00;0.00;;;5.20;74.20;;;;;;5080341;28;20210;-34
2024/01/15 04:47:28;;;;;;;0.00;0.00;;;5.20;74.20;;;;;;5065462;28;20218;-34
2024/01/15 04:49:55;;;;;;;0.00;0.00;;;5.10;74.20;;;;;;5072536;28;20286;-35
2024/01/15 04:52:23;;;;;;;0.00;0.00;;;5.10;74.10;;;;;;5078766;28;20632;-34
2024/01/15 04:54:52;;;;;;;0.00;0.00;;;5.10;74.20;;;;;;5059474;28;20207;-34
2024/01/15 04:57:20;;;;;;;0.00;0.00;;;5.10;74.20;;;;;;5078317;28;20211;-35
2024/01/15 04:59:47;;;;;;;0.00;0.00;;;5.10;74.20;;;;;;5085668;28;20209;-34
2024/01/15 05:02:14;;;;;;;0.00;0.00;;;5.10;74.20;;;;;;5088239;28;20218;-34
2024/01/15 05:04:41;;;;;;;0.00;0.00;;;5.10;74.20;;;;;;5088017;28;20246;-34
2024/01/15 05:07:09;;;;;;;0.00;0.00;;;5.10;74.20;;;;;;5073946;28;20243;-34
2024/01/15 05:09:36;;;;;;;0.00;0.00;;;5.00;74.00;;;;;;5069250;28;20655;-34
2024/01/15 05:12:03;;;;;;;0.00;0.00;;;5.00;73.90;;;;;;5069321;28;20212;-34
2024/01/15 05:14:33;;;;;;;0.00;0.00;;;5.00;73.90;;;;;;5068621;28;20685;-34
2024/01/15 05:17:01;;;;;;;0.00;0.00;;;5.00;73.90;;;;;;5079780;28;20221;-34
2024/01/15 05:19:28;;;;;;;0.00;0.00;;;4.90;73.90;;;;;;5088626;28;20216;-33
2024/01/15 05:21:58;;;;;;;0.00;0.00;;;4.90;74.00;;;;;;5089002;28;20265;-34
2024/01/15 05:24:27;;;;;;;0.00;0.00;;;4.90;74.10;;;;;;5069356;28;20787;-38
2024/01/15 05:26:56;;;;;;;0.00;0.00;;;4.90;74.10;;;;;;5089142;28;20214;-32
2024/01/15 05:29:28;;;;;;;0.00;0.00;;;4.90;74.10;;;;;;5087187;28;20210;-33
2024/01/15 05:31:56;;;;;;;0.00;0.00;;;4.90;74.10;;;;;;5087222;28;20218;-33
2024/01/15 05:34:28;;;;;;;0.00;0.00;;;4.90;74.10;;;;;;5087145;28;20297;-34
2024/01/15 05:36:55;;;;;;;0.00;0.00;;;4.80;74.10;;;;;;5089127;28;20289;-34
2024/01/15 05:39:24;;;;;;;0.00;0.00;;;4.90;74.20;;;;;;5086009;28;20817;-33
2024/01/15 05:41:52;;;;;;;0.00;0.00;;;4.90;74.20;;;;;;5033934;28;20741;-35
2024/01/15 05:44:23;;;;;;;0.00;0.00;;;4.80;74.10;;;;;;5068287;28;20310;-34
2024/01/15 05:46:53;;;;;;;0.00;0.00;;;4.90;74.20;;;;;;5068249;28;20681;-35
2024/01/15 05:49:21;;;;;;;0.00;0.00;;;4.80;74.20;;;;;;5083318;28;20253;-33
2024/01/15 05:51:51;;;;;;;0.00;0.00;;;4.80;74.10;;;;;;5088693;28;20196;-35
2024/01/15 05:54:19;;;;;;;0.00;0.00;;;4.80;74.00;;;;;;5087994;28;20573;-35
2024/01/15 05:56:47;;;;;;;0.00;0.00;;;4.80;74.10;;;;;;5084898;28;20199;-35
2024/01/15 05:59:14;;;;;;;0.00;0.00;;;4.80;74.00;;;;;;5067862;28;20693;-34
2024/01/15 06:01:42;;;;;;;0.00;0.00;;;4.80;74.00;;;;;;5068608;28;20223;-34
2024/01/15 06:04:12;;;;;;;0.00;0.00;;;4.80;74.00;;;;;;5057863;28;20753;-34
2024/01/15 06:06:39;;;;;;;0.00;0.00;;;4.80;74.00;;;;;;5066497;28;20237;-34
2024/01/15 06:09:07;;;;;;;0.00;0.00;;;4.70;74.00;;;;;;5065876;28;20282;-34
2024/01/15 06:11:39;;;;;;;0.00;0.00;;;4.70;74.00;;;;;;5067643;28;20256;-35
2024/01/15 06:14:09;;;;;;;0.00;0.00;;;4.70;74.00;;;;;;5055138;28;20215;-34
2024/01/15 06:16:38;;;;;;;0.00;0.00;;;4.70;74.00;;;;;;5086391;28;20215;-35
2024/01/15 06:19:08;;;;;;;0.00;0.00;;;4.70;74.00;;;;;;5088000;28;20313;-34
2024/01/15 06:21:40;;;;;;;0.00;0.00;;;4.70;74.00;;;;;;5087877;28;20539;-34
2024/01/15 06:24:09;;;;;;;0.00;0.00;;;4.70;74.00;;;;;;5085586;28;20698;-34
2024/01/15 06:26:40;;;;;;;0.00;0.00;;;4.60;74.00;;;;;;5087628;28;20203;-34
2024/01/15 06:29:09;;;;;;;0.00;0.00;;;4.60;74.10;;;;;;5069698;28;20681;-33
2024/01/15 06:31:36;;;;;;;0.00;0.00;;;4.60;74.00;;;;;;5085184;28;20211;-34
2024/01/15 06:34:04;;;;;;;0.00;0.00;;;4.60;74.10;;;;;;5087430;28;20238;-34
2024/01/15 06:36:31;;;;;;;0.00;0.00;;;4.60;74.20;;;;;;5087772;28;20198;-34
2024/01/15 06:38:58;;;;;;;0.00;0.00;;;4.60;74.20;;;;;;5068788;28;20209;-33
2024/01/15 06:41:26;;;;;;;0.00;0.00;;;4.60;74.10;;;;;;5086111;28;20219;-34
2024/01/15 06:43:53;;;;;;;0.00;0.00;;;4.60;74.10;;;;;;5070917;28;20288;-34
2024/01/15 06:46:21;;;;;;;0.00;0.00;;;4.60;74.10;;;;;;5076536;28;20215;-35
2024/01/15 06:48:49;;;;;;;0.00;0.00;;;4.60;74.20;;;;;;5074902;28;20199;-34
2024/01/15 06:51:16;;;;;;;0.00;0.00;;;4.60;74.00;;;;;;5066904;28;20295;-34
2024/01/15 06:53:48;;;;;;;0.00;0.00;;;4.60;74.10;;;;;;5048851;28;20703;-34
2024/01/15 06:56:16;;;;;;;0.00;0.00;;;4.50;74.00;;;;;;5065432;28;20253;-33
2024/01/15 06:58:43;;;;;;;0.00;0.00;;;4.50;74.00;;;;;;5065651;28;20650;-33
2024/01/15 07:01:10;;;;;;;0.00;0.00;;;4.50;74.10;;;;;;5066785;28;20227;-34
2024/01/15 07:03:38;;;;;;;0.00;0.00;;;4.50;74.00;;;;;;5066562;28;20211;-33
2024/01/15 07:06:05;;;;;;;0.00;0.00;;;4.50;74.10;;;;;;5066954;28;20242;-34
2024/01/15 07:08:37;;;;;;;0.00;0.00;;;4.50;74.10;;;;;;5067236;28;20938;-35
2024/01/15 07:11:07;;;;;;;0.00;0.00;;;4.50;74.10;;;;;;5050973;28;20191;-35
2024/01/15 07:13:36;;;;;;;0.00;0.00;;;4.50;74.10;;;;;;5068316;28;20203;-34
2024/01/15 07:16:05;;;;;;;0.00;0.00;;;4.50;74.10;;;;;;5068324;28;20261;-34
2024/01/15 07:18:32;;;;;;;0.00;0.00;;;4.50;74.10;;;;;;5066655;28;20215;-34
2024/01/15 07:21:01;;;;;;;0.00;0.00;;;4.50;74.10;;;;;;5050137;28;20631;-33
2024/01/15 07:23:28;;;;;;;0.00;0.00;;;4.50;74.10;;;;;;5064821;28;20221;-33
2024/01/15 07:26:02;;;;;;;0.00;0.00;;;4.50;74.10;;;;;;5066118;28;20818;-34
2024/01/15 07:28:31;;;;;;;0.00;0.00;;;4.50;74.00;;;;;;5066218;28;20595;-34
2024/01/15 07:31:01;;;;;;;0.00;0.00;;;4.50;74.00;;;;;;5064967;28;20595;-34
2024/01/15 07:33:30;;;;;;;0.00;0.00;;;4.50;74.00;;;;;;5066376;28;20215;-34
2024/01/15 07:36:03;;;;;;;0.00;0.00;;;4.40;74.10;;;;;;5066523;28;20754;-34
2024/01/15 07:38:30;;;;;;;0.00;0.00;;;4.40;74.10;;;;;;5064986;28;20214;-33
2024/01/15 07:41:00;;;;;;;0.00;0.00;;;4.40;74.20;;;;;;5048385;28;20277;-33
2024/01/15 07:43:30;;;;;;;0.00;0.00;;;4.40;74.20;;;;;;5067061;28;20310;-34
2024/01/15 07:45:58;;;;;;;0.00;0.00;;;4.40;74.20;;;;;;5084835;28;20292;-34
2024/01/15 07:48:27;;;;;;;0.00;0.00;;;4.40;74.20;;;;;;5086140;28;20195;-34
2024/01/15 07:50:54;;;;;;;0.00;0.00;;;4.40;74.20;;;;;;5084677;28;20253;-35
2024/01/15 07:53:22;;;;;;;0.00;0.00;;;4.40;74.20;;;;;;5085835;28;20617;-33
2024/01/15 07:55:51;;;;;;;0.00;0.00;;;4.40;74.20;;;;;;5063946;28;20786;-34
2024/01/15 07:58:18;;;;;;;0.00;0.00;;;4.40;74.10;;;;;;5065379;28;20207;-34
2024/01/15 08:00:46;;;;;;;0.00;0.00;;;4.40;74.20;;;;;;5064532;28;20230;-33
2024/01/15 08:03:15;;;;;;;0.00;0.00;;;4.40;74.20;;;;;;5063872;28;20237;-34
2024/01/15 08:05:45;;;;;;;0.00;0.00;;;4.50;74.30;;;;;;5065611;28;20804;-34
2024/01/15 08:08:14;;;;;;;0.00;0.00;;;4.50;74.20;;;;;;5063393;28;20231;-34
2024/01/15 08:10:42;;;;;;;0.00;0.00;;;4.50;74.20;;;;;;5047818;28;20230;-34
2024/01/15 08:13:11;;;;;;;0.00;0.00;;;4.50;74.20;;;;;;5066296;28;20242;-34
2024/01/15 08:15:41;;;;;;;0.00;0.00;;;4.50;74.20;;;;;;5065609;28;20233;-33
2024/01/15 08:18:08;;;;;;;0.00;0.00;;;4.50;74.20;;;;;;5065949;28;20281;-34
2024/01/15 08:20:36;;;;;;;0.00;0.00;;;4.50;74.30;;;;;;5065396;28;20285;-34
2024/01/15 08:23:04;;;;;;;0.00;0.00;;;4.50;74.20;;;;;;5065215;28;20459;-33
2024/01/15 08:25:31;;;;;;;0.00;0.00;;;4.50;74.30;;;;;;5064224;28;20202;-33
2024/01/15 08:27:59;;;;;;;0.00;0.00;;;4.50;74.30;;;;;;5064274;28;20195;-34
2024/01/15 08:30:27;;;;;;;0.00;0.00;;;4.50;74.30;;;;;;5064702;28;20227;-34
2024/01/15 08:32:59;;;;;;;0.00;0.00;;;4.60;74.50;;;;;;5065838;28;20583;-34
2024/01/15 08:35:41;;;;;;;0.00;0.00;;;4.60;74.30;;;;;;5066844;28;20217;-34
2024/01/15 08:38:08;;;;;;;0.00;0.00;;;4.60;74.20;;;;;;5071628;28;20223;-34
2024/01/15 08:40:36;;;;;;;0.00;0.00;;;4.60;74.20;;;;;;5072943;28;20653;-34
2024/01/15 08:43:07;;;;;;;0.00;0.00;;;4.60;74.10;;;;;;5086098;28;20569;-34
2024/01/15 08:45:34;;;;;;;0.00;0.00;;;4.60;74.10;;;;;;5090776;28;20202;-35
2024/01/15 08:48:04;;;;;;;0.00;0.00;;;4.60;74.20;;;;;;5077918;28;20298;-34
2024/01/15 08:50:35;;;;;;;0.00;0.00;;;4.70;74.20;;;;;;5071800;28;20574;-34
2024/01/15 08:53:02;;;;;;;0.00;0.00;;;4.70;74.20;;;;;;5069741;28;20196;-34
2024/01/15 08:55:30;;;;;;;0.00;0.00;;;4.70;74.10;;;;;;5082071;28;20199;-34
2024/01/15 08:57:57;;;;;;;0.00;0.00;;;4.70;74.20;;;;;;5092096;28;20669;-34
2024/01/15 09:00:24;;;;;;;0.00;0.00;;;4.70;74.10;;;;;;5073593;28;20207;-34
2024/01/15 09:02:54;;;;;;;0.00;0.00;;;4.70;74.10;;;;;;5090233;28;20195;-34
2024/01/15 09:05:21;;;;;;;0.00;0.00;;;4.70;74.10;;;;;;5073778;28;20215;-35
2024/01/15 09:07:51;;;;;;;0.00;0.00;;;4.70;74.10;;;;;;5072155;28;20205;-34
2024/01/15 09:10:19;;;;;;;0.00;0.00;;;4.70;74.10;;;;;;5092223;28;20268;-34
2024/01/15 09:12:49;;;;;;;0.00;0.00;;;4.70;74.10;;;;;;5073578;28;20205;-34
2024/01/15 09:15:16;;;;;;;0.00;0.00;;;4.80;74.20;;;;;;5074174;28;20326;-34
2024/01/15 09:17:44;;;;;;;0.00;0.00;;;4.80;74.20;;;;;;5086675;28;20283;-34
2024/01/15 09:20:11;;;;;;;0.00;0.00;;;4.80;73.90;;;;;;5071518;28;20290;-33
2024/01/15 09:22:44;;;;;;;0.00;0.00;;;4.80;74.00;;;;;;5071689;28;20231;-34
2024/01/15 09:25:14;;;;;;;0.00;0.00;;;4.80;73.90;;;;;;5071430;28;20681;-33
2024/01/15 09:27:42;;;;;;;0.00;0.00;;;4.80;73.60;;;;;;5071323;28;20678;-33
2024/01/15 09:30:09;;;;;;;0.00;0.00;;;4.80;73.80;;;;;;5070065;28;20200;-34
2024/01/15 09:32:37;;;;;;;0.00;0.00;;;4.80;73.90;;;;;;5070326;28;20222;-33
2024/01/15 09:35:07;;;;;;;0.00;0.00;;;4.80;73.80;;;;;;5070211;28;20202;-34
2024/01/15 09:37:37;;;;;;;0.00;0.00;;;4.80;73.90;;;;;;5072348;28;20218;-34
2024/01/15 09:40:15;;;;;;;0.00;0.00;;;4.80;73.80;;;;;;5070242;28;20553;-34
2024/01/15 09:42:43;;;;;;;0.00;0.00;;;4.80;73.80;;;;;;5071241;28;20208;-35
2024/01/15 09:45:11;;;;;;;0.00;0.00;;;4.80;73.70;;;;;;5071401;28;20713;-34
2024/01/15 09:47:41;;;;;;;0.00;0.00;;;4.80;73.60;;;;;;5068433;28;20199;-33
2024/01/15 09:50:14;;;;;;;0.00;0.00;;;4.80;73.50;;;;;;5067867;28;20204;-34
2024/01/15 09:52:45;;;;;;;0.00;0.00;;;4.80;73.60;;;;;;5066065;28;20294;-34
2024/01/15 09:55:15;;;;;;;0.00;0.00;;;4.80;73.60;;;;;;5079458;28;20261;-34
2024/01/15 09:57:48;;;;;;;0.00;0.00;;;4.80;73.50;;;;;;5068012;28;20204;-34
2024/01/15 10:00:18;;;;;;;0.00;0.00;;;4.80;73.50;;;;;;5066467;28;20602;-33
2024/01/15 10:02:50;;;;;;;0.00;0.00;;;4.80;73.60;;;;;;5050182;28;20295;-34
2024/01/15 10:05:18;;;;;;;0.00;0.00;;;4.80;73.70;;;;;;5067877;28;20622;-33
2024/01/15 10:07:51;;;;;;;0.00;0.00;;;4.80;73.60;;;;;;5065781;28;20235;-32
2024/01/15 10:10:18;;;;;;;0.00;0.00;;;4.80;73.30;;;;;;5067883;28;20284;-34
2024/01/15 10:12:48;;;;;;;0.00;0.00;;;4.80;73.00;;;;;;5067825;28;20219;-34
2024/01/15 10:15:17;;;;;;;0.00;0.00;;;4.80;73.10;;;;;;5066024;28;20206;-34
2024/01/15 10:17:47;;;;;;;0.00;0.00;;;4.80;73.30;;;;;;5084694;28;20260;-35
2024/01/15 10:20:17;;;;;;;0.00;0.00;;;4.80;73.30;;;;;;5086693;28;20218;-34
2024/01/15 10:22:47;;;;;;;0.00;0.00;;;4.80;73.30;;;;;;5086100;28;20215;-34
2024/01/15 10:25:22;;;;;;;0.00;0.00;;;4.80;73.90;;;;;;5087999;28;20704;-35
2024/01/15 10:28:01;;;;;;;0.00;0.00;;;4.80;73.40;;;;;;5086463;28;20202;-34
2024/01/15 10:30:28;;;;;;;0.00;0.00;;;4.80;73.50;;;;;;5087236;28;20688;-34
2024/01/15 10:33:03;;;;;;;0.00;0.00;;;4.80;73.30;;;;;;5087612;28;20214;-33
2024/01/15 10:35:36;;;;;;;0.00;0.00;;;4.80;73.20;;;;;;5088075;28;20317;-34
2024/01/15 10:38:05;;;;;;;0.00;0.00;;;4.80;73.50;;;;;;5087178;28;20692;-34
2024/01/15 10:40:34;;;;;;;0.00;0.00;;;4.80;73.60;;;;;;5085948;28;20210;-35
2024/01/15 10:43:07;;;;;;;0.00;0.00;;;4.90;73.30;;;;;;5087135;28;20306;-34
2024/01/15 10:45:34;;;;;;;0.00;0.00;;;4.90;73.60;;;;;;5085356;28;20203;-34
2024/01/15 10:48:03;;;;;;;0.00;0.00;;;4.90;73.60;;;;;;5065607;28;20202;-34
2024/01/15 10:50:32;;;;;;;0.00;0.00;;;4.90;73.60;;;;;;5065387;28;20764;-34
2024/01/15 10:53:02;;;;;;;0.00;0.00;;;4.90;73.50;;;;;;5065082;28;20207;-34
2024/01/15 10:55:32;;;;;;;0.00;0.00;;;5.00;73.70;;;;;;5067212;28;20665;-34
2024/01/15 10:58:00;;;;;;;0.00;0.00;;;5.00;73.20;;;;;;5066965;28;20702;-36
2024/01/15 11:00:28;;;;;;;0.00;0.00;;;5.00;73.50;;;;;;5064788;28;20302;-34
2024/01/15 11:02:55;;;;;;;0.00;0.00;;;5.00;73.10;;;;;;5065854;28;20578;-34
2024/01/15 11:05:26;;;;;;;0.00;0.00;;;5.00;73.30;;;;;;5065148;28;20243;-35
2024/01/15 11:08:01;;;;;;;0.00;0.00;;;5.10;73.40;;;;;;5066355;28;20195;-34
2024/01/15 11:10:48;;;;;;;0.00;0.00;;;5.00;73.50;;;;;;5065224;28;20312;-34
2024/01/15 11:13:20;;;;;;;0.00;0.00;;;5.10;73.90;;;;;;5066270;28;20199;-35
2024/01/15 11:16:00;;;;;;;0.00;0.00;;;5.10;73.90;;;;;;5067061;28;20199;-35
2024/01/15 11:18:34;;;;;;;0.00;0.00;;;5.10;73.70;;;;;;5086631;28;20325;-36
2024/01/15 11:21:16;;;;;;;0.00;0.00;;;5.20;73.80;;;;;;5086019;28;20297;-36
2024/01/15 11:23:58;;;;;;;0.00;0.00;;;5.20;73.60;;;;;;5085390;28;20712;-36
2024/01/15 11:26:38;;;;;;;0.00;0.00;;;5.30;73.50;;;;;;5085421;28;20191;-36
2024/01/15 11:29:30;;;;;;;0.00;0.00;;;5.30;73.60;;;;;;5086445;28;20211;-35
2024/01/15 11:32:00;;;;;;;0.00;0.00;;;5.30;73.70;;;;;;5086600;28;20562;-35
2024/01/15 11:34:58;;;;;;;0.00;0.00;;;5.30;73.80;;;;;;5084632;28;20211;-35
2024/01/15 11:37:50;;;;;;;0.00;0.00;;;5.30;73.40;;;;;;5075792;28;20216;-34
2024/01/15 11:40:21;;;;;;;0.00;0.00;;;5.40;73.80;;;;;;5064401;28;20231;-34
2024/01/15 11:42:49;;;;;;;0.00;0.00;;;5.40;73.60;;;;;;5064377;28;20188;-35
2024/01/15 11:45:22;;;;;;;0.00;0.00;;;5.40;73.40;;;;;;5064460;28;20581;-35
2024/01/15 11:48:14;;;;;;;0.00;0.00;;;5.40;73.50;;;;;;5065904;28;20281;-35
2024/01/15 11:50:43;;;;;;;0.00;0.00;;;5.50;73.30;;;;;;5064491;28;20196;-34
2024/01/15 11:53:35;;;;;;;0.00;0.00;;;5.50;73.40;;;;;;5063962;28;20639;-35
2024/01/15 11:56:06;;;;;;;0.00;0.00;;;5.50;73.30;;;;;;5064556;28;20203;-34
2024/01/15 11:58:35;;;;;;;0.00;0.00;;;5.50;73.30;;;;;;5048234;28;20203;-34
2024/01/15 12:01:05;;;;;;;0.00;0.00;;;5.50;73.20;;;;;;5065667;28;20223;-34
2024/01/15 12:03:35;;;;;;;0.00;0.00;;;5.50;72.60;;;;;;5063905;28;20250;-35
2024/01/15 12:06:09;;;;;;;0.00;0.00;;;5.60;73.20;;;;;;5065929;28;20242;-34
2024/01/15 12:08:37;;;;;;;0.00;0.00;;;5.50;72.50;;;;;;5073974;28;20222;-34
2024/01/15 12:11:10;;;;;;;0.00;0.00;;;5.60;72.70;;;;;;5078897;28;20204;-34
2024/01/15 12:13:38;;;;;;;0.00;0.00;;;5.60;72.70;;;;;;5066048;28;20295;-34
2024/01/15 12:16:05;;;;;;;0.00;0.00;;;5.60;72.40;;;;;;5068993;28;20198;-33
2024/01/15 12:18:33;;;;;;;0.00;0.00;;;5.60;72.70;;;;;;5067323;28;20225;-34
2024/01/15 12:21:03;;;;;;;0.00;0.00;;;5.60;72.70;;;;;;5084404;28;20210;-34
2024/01/15 12:23:33;;;;;;;0.00;0.00;;;5.60;71.80;;;;;;5084246;28;20206;-35
2024/01/15 12:26:01;;;;;;;0.00;0.00;;;5.70;72.80;;;;;;5067664;28;20226;-35
2024/01/15 12:28:28;;;;;;;0.00;0.00;;;5.70;73.00;;;;;;5085019;28;20545;-34
2024/01/15 12:30:55;;;;;;;0.00;0.00;;;5.70;72.70;;;;;;5086549;28;20226;-35
2024/01/15 12:33:23;;;;;;;0.00;0.00;;;5.70;72.90;;;;;;5085467;28;20213;-35
2024/01/15 12:35:53;;;;;;;0.00;0.00;;;5.70;72.70;;;;;;5084005;28;20215;-34
2024/01/15 12:38:20;;;;;;;0.00;0.00;;;5.80;72.90;;;;;;5085006;28;20206;-34
2024/01/15 12:40:50;;;;;;;0.00;0.00;;;5.80;72.60;;;;;;5084138;28;20708;-34
2024/01/15 12:43:22;;;;;;;0.00;0.00;;;5.80;72.50;;;;;;5083559;28;20226;-35
2024/01/15 12:45:53;;;;;;;0.00;0.00;;;5.80;71.80;;;;;;5071109;28;20306;-33
2024/01/15 12:48:23;;;;;;;0.00;0.00;;;5.90;71.80;;;;;;5063829;28;20692;-34
2024/01/15 12:50:52;;;;;;;0.00;0.00;;;5.80;72.10;;;;;;5063655;28;20250;-34
2024/01/15 12:53:19;;;;;;;0.00;0.00;;;5.80;72.20;;;;;;5063121;28;20204;-34
2024/01/15 12:55:50;;;;;;;0.00;0.00;;;5.90;71.90;;;;;;5059179;28;20210;-35
2024/01/15 12:58:17;;;;;;;0.00;0.00;;;5.90;71.90;;;;;;5067500;28;20318;-34
2024/01/15 13:00:47;;;;;;;0.00;0.00;;;5.90;72.20;;;;;;5067592;28;20263;-33
2024/01/15 13:03:14;;;;;;;0.00;0.00;;;5.90;71.70;;;;;;5068071;28;20594;-34
2024/01/15 13:05:45;;;;;;;0.00;0.00;;;5.90;72.50;;;;;;5065063;28;20254;-34
2024/01/15 13:08:13;;;;;;;0.00;0.00;;;5.90;72.50;;;;;;5063150;28;20210;-35
2024/01/15 13:10:42;;;;;;;0.00;0.00;;;5.80;72.50;;;;;;5064103;28;20217;-34